Time;durP1;ratioP1;P1;durP2;ratioP2;P2;SDS_P1;SDS_P2;PMS_P1;PMS_P2;Temp;Humidity;BMP_temperature;BMP_pressure;BME280_temperature;BME280_humidity;BME280_pressure;Samples;Min_cycle;Max_cycle;Signal;HPM_P1;HPM_P2
2023/03/02 00:01:23;;;;;;;14.87;6.28;;;;;;;8.37;35.58;99211.28;4471721;32;20093;-83
2023/03/02 00:03:48;;;;;;;17.65;6.62;;;;;;;8.46;35.54;99213.59;4457741;32;20148;-85
2023/03/02 00:06:14;;;;;;;16.52;6.37;;;;;;;8.22;35.33;99214.50;4444786;32;20376;-78
2023/03/02 00:08:40;;;;;;;14.55;5.75;;;;;;;8.41;35.33;99214.66;4471972;32;20092;-78
2023/03/02 00:11:05;;;;;;;14.93;6.12;;;;;;;8.38;35.50;99207.75;4471869;32;20092;-78
2023/03/02 00:13:32;;;;;;;15.93;6.53;;;;;;;8.43;35.40;99204.97;4457674;32;20138;-78
2023/03/02 00:15:57;;;;;;;18.85;7.53;;;;;;;8.48;35.28;99202.16;4471773;32;20127;-77
2023/03/02 00:18:22;;;;;;;17.20;6.40;;;;;;;8.52;35.49;99209.00;4457435;32;20124;-80
2023/03/02 00:20:48;;;;;;;15.75;6.45;;;;;;;8.51;35.44;99213.41;4471801;32;20089;-80
2023/03/02 00:23:14;;;;;;;16.17;6.70;;;;;;;8.48;35.28;99203.03;4471644;32;20103;-79
2023/03/02 00:25:39;;;;;;;17.67;6.80;;;;;;;8.48;35.44;99204.78;4457504;32;20100;-79
2023/03/02 00:28:05;;;;;;;16.85;6.50;;;;;;;8.37;35.74;99203.41;4471799;32;20466;-79
2023/03/02 00:30:30;;;;;;;15.77;6.40;;;;;;;8.42;35.56;99201.50;4471666;32;20129;-80
2023/03/02 00:32:57;;;;;;;14.95;6.25;;;;;;;8.54;35.96;99192.28;4457543;32;20080;-79
2023/03/02 00:35:23;;;;;;;16.67;6.75;;;;;;;8.51;35.77;99191.53;4471616;32;20088;-79
2023/03/02 00:37:48;;;;;;;17.27;6.90;;;;;;;8.49;35.60;99196.84;4471477;32;20111;-79
2023/03/02 00:40:14;;;;;;;18.20;7.00;;;;;;;8.39;36.25;99188.44;4471327;32;20072;-79
2023/03/02 00:42:39;;;;;;;15.63;6.62;;;;;;;8.46;36.14;99187.34;4457355;32;20150;-79
2023/03/02 00:45:05;;;;;;;14.90;6.53;;;;;;;8.43;35.81;99182.19;4471489;32;20126;-79
2023/03/02 00:47:35;;;;;;;15.73;6.85;;;;;;;8.50;35.53;99184.56;4457430;32;20116;-79
2023/03/02 00:50:02;;;;;;;17.95;6.97;;;;;;;8.44;35.35;99183.91;4457355;32;20110;-79
2023/03/02 00:52:29;;;;;;;16.85;7.32;;;;;;;8.33;35.87;99177.34;4457401;32;20123;-79
2023/03/02 00:54:54;;;;;;;17.80;7.80;;;;;;;8.48;35.56;99168.03;4457287;32;20166;-79
2023/03/02 00:57:19;;;;;;;17.15;7.35;;;;;;;8.32;36.04;99165.13;4471422;32;20136;-79
2023/03/02 00:59:45;;;;;;;17.87;7.03;;;;;;;8.28;36.24;99167.00;4470867;32;20084;-79
2023/03/02 01:02:10;;;;;;;15.55;6.78;;;;;;;8.21;36.63;99168.19;4471245;32;20142;-79
2023/03/02 01:04:38;;;;;;;18.62;7.55;;;;;;;8.22;36.77;99167.25;4457374;32;20093;-80
2023/03/02 01:07:05;;;;;;;;;;;;;;;8.32;36.59;99167.75;4471749;32;20376;-78
2023/03/02 01:09:31;;;;;;;17.83;6.78;;;;;;;8.39;36.54;99156.94;4471498;32;19990;-78
2023/03/02 01:11:56;;;;;;;17.05;6.93;;;;;;;8.38;36.52;99151.75;4471412;32;20088;-77
2023/03/02 01:14:22;;;;;;;19.12;6.87;;;;;;;8.34;36.77;99156.25;4471342;32;20092;-79
2023/03/02 01:16:47;;;;;;;16.92;7.12;;;;;;;8.35;36.91;99152.75;4471309;32;20097;-79
2023/03/02 01:19:13;;;;;;;17.12;6.72;;;;;;;8.33;37.18;99148.47;4471260;32;20102;-79
2023/03/02 01:21:39;;;;;;;16.85;7.15;;;;;;;8.37;37.14;99144.81;4471344;32;20111;-79
2023/03/02 01:24:05;;;;;;;16.02;6.72;;;;;;;8.37;36.94;99132.53;4471209;32;20185;-80
2023/03/02 01:26:30;;;;;;;17.58;7.03;;;;;;;8.35;36.63;99126.47;4471258;32;20093;-80
2023/03/02 01:28:56;;;;;;;18.17;7.40;;;;;;;8.31;36.45;99127.53;4471332;32;20096;-80
2023/03/02 01:31:22;;;;;;;16.77;6.90;;;;;;;8.29;36.56;99118.84;4457073;32;20076;-79
2023/03/02 01:33:47;;;;;;;19.05;7.62;;;;;;;8.04;36.22;99122.44;4471271;32;20388;-79
2023/03/02 01:36:13;;;;;;;16.73;8.02;;;;;;;7.94;36.64;99107.97;4456928;32;20089;-79
2023/03/02 01:38:38;;;;;;;16.77;7.37;;;;;;;7.87;36.53;99111.75;4456953;32;20081;-79
2023/03/02 01:41:04;;;;;;;16.87;7.32;;;;;;;8.07;36.46;99109.22;4471117;32;20076;-79
2023/03/02 01:43:29;;;;;;;17.55;7.20;;;;;;;8.14;36.37;99106.34;4456987;32;20097;-80
2023/03/02 01:45:56;;;;;;;18.85;7.70;;;;;;;7.86;36.83;99104.78;4470978;32;20141;-79
2023/03/02 01:48:52;;;;;;;18.30;7.10;;;;;;;7.86;37.13;99100.41;4456999;32;20080;-79
2023/03/02 01:51:22;;;;;;;21.27;8.40;;;;;;;7.68;37.58;99101.94;4470974;32;20581;-79
2023/03/02 01:53:51;;;;;;;18.92;7.70;;;;;;;7.98;37.21;99103.47;4456793;32;20109;-80
2023/03/02 01:56:19;;;;;;;18.40;7.37;;;;;;;7.96;37.47;99100.03;4456845;32;20773;-78
2023/03/02 01:58:47;;;;;;;16.48;6.07;;;;;;;8.16;36.92;99091.41;4456892;32;20116;-79
2023/03/02 02:01:16;;;;;;;16.85;6.60;;;;;;;8.17;36.94;99083.47;4470695;32;20095;-78
2023/03/02 02:03:48;;;;;;;16.27;6.35;;;;;;;8.05;37.12;99087.44;4457172;32;20085;-79
2023/03/02 02:06:22;;;;;;;16.40;6.30;;;;;;;8.14;36.71;99083.56;4456834;32;20145;-80
2023/03/02 02:08:48;;;;;;;17.35;7.07;;;;;;;7.96;37.22;99068.53;4470808;32;20088;-80
2023/03/02 02:11:14;;;;;;;15.88;6.57;;;;;;;8.01;37.10;99069.22;4457639;32;20386;-80
2023/03/02 02:13:39;;;;;;;17.02;7.07;;;;;;;7.92;37.46;99065.22;4458424;32;20107;-80
2023/03/02 02:16:06;;;;;;;15.82;6.97;;;;;;;7.94;37.31;99075.62;4472686;32;20089;-80
2023/03/02 02:18:32;;;;;;;17.90;7.07;;;;;;;8.15;37.16;99071.31;4445464;32;20076;-79
2023/03/02 02:20:58;;;;;;;14.87;6.60;;;;;;;8.23;37.56;99072.72;4458513;32;20119;-80
2023/03/02 02:23:25;;;;;;;16.95;7.80;;;;;;;8.23;37.34;99077.13;4458405;32;20093;-80
2023/03/02 02:26:03;;;;;;;20.48;7.28;;;;;;;8.23;37.55;99075.34;4458590;32;20104;-80
2023/03/02 02:29:01;;;;;;;18.12;6.60;;;;;;;8.17;37.98;99077.34;4472644;32;20106;-80
2023/03/02 02:31:29;;;;;;;20.05;8.45;;;;;;;8.05;38.19;99073.44;4423962;32;20360;-80
2023/03/02 02:33:59;;;;;;;19.45;8.57;;;;;;;7.74;39.58;99085.13;4423861;32;20139;-80
2023/03/02 02:36:31;;;;;;;17.55;7.85;;;;;;;8.06;39.09;99081.25;4411014;32;20196;-79
2023/03/02 02:39:00;;;;;;;16.65;7.30;;;;;;;7.71;39.97;99084.38;4423728;32;20154;-80
2023/03/02 02:41:29;;;;;;;18.33;6.78;;;;;;;7.68;40.18;99075.72;4410894;32;20073;-80
2023/03/02 02:43:55;;;;;;;16.65;6.62;;;;;;;7.91;39.75;99075.75;4411034;32;20507;-80
2023/03/02 02:46:20;;;;;;;16.08;6.07;;;;;;;7.81;39.91;99078.75;4423715;32;20289;-79
2023/03/02 02:48:46;;;;;;;17.33;6.60;;;;;;;7.80;39.36;99076.16;4423635;32;20180;-80
2023/03/02 02:51:20;;;;;;;17.92;6.18;;;;;;;7.66;39.47;99076.69;4410887;32;20132;-79
2023/03/02 02:53:57;;;;;;;15.70;6.28;;;;;;;7.09;40.23;99081.44;4411012;32;20097;-79
2023/03/02 02:56:27;;;;;;;14.70;5.85;;;;;;;7.19;39.72;99074.94;4410860;32;20659;-79
2023/03/02 02:58:55;;;;;;;14.82;6.25;;;;;;;7.07;39.68;99075.38;4423881;32;20190;-78
2023/03/02 03:01:25;;;;;;;15.05;6.25;;;;;;;7.50;38.86;99068.56;4423414;32;20082;-79
2023/03/02 03:04:01;;;;;;;16.73;6.07;;;;;;;7.57;38.53;99067.44;4411241;32;20460;-80
2023/03/02 03:06:37;;;;;;;13.85;5.25;;;;;;;7.40;38.47;99065.44;4423856;32;20089;-79
2023/03/02 03:09:04;;;;;;;12.77;5.30;;;;;;;7.34;38.19;99063.06;4472151;32;20085;-79
2023/03/02 03:11:32;;;;;;;16.95;5.95;;;;;;;7.55;37.78;99061.41;4458203;32;20420;-80
2023/03/02 03:14:09;;;;;;;16.12;5.60;;;;;;;7.77;36.76;99060.56;4472467;32;20093;-79
2023/03/02 03:16:36;;;;;;;12.40;4.82;;;;;;;7.63;36.20;99061.94;4458193;32;20156;-79
2023/03/02 03:19:10;;;;;;;14.45;5.10;;;;;;;6.80;37.42;99069.31;4472205;32;20084;-79
2023/03/02 03:21:35;;;;;;;14.35;4.95;;;;;;;7.21;36.71;99069.66;4457856;32;20077;-79
2023/03/02 03:24:01;;;;;;;13.23;5.43;;;;;;;7.47;34.83;99066.06;4472140;32;20237;-79
2023/03/02 03:26:26;;;;;;;14.90;5.25;;;;;;;7.14;35.71;99068.16;4472084;32;20092;-79
2023/03/02 03:28:52;;;;;;;16.45;5.22;;;;;;;6.88;36.57;99059.47;4472207;32;20080;-79
2023/03/02 03:31:17;;;;;;;13.68;5.30;;;;;;;6.94;36.23;99061.88;4458115;32;20080;-80
2023/03/02 03:33:43;;;;;;;14.05;5.07;;;;;;;7.23;35.58;99068.66;4472310;32;20115;-79
2023/03/02 03:36:08;;;;;;;12.68;4.82;;;;;;;6.86;35.88;99075.22;4472225;32;20097;-79
2023/03/02 03:38:34;;;;;;;13.75;5.15;;;;;;;7.43;35.10;99069.69;4472240;32;20215;-79
2023/03/02 03:41:00;;;;;;;12.52;4.95;;;;;;;7.68;34.86;99069.63;4472128;32;20453;-79
2023/03/02 03:43:25;;;;;;;14.13;4.97;;;;;;;7.55;34.63;99078.87;4458206;32;20141;-79
2023/03/02 03:45:50;;;;;;;12.98;4.80;;;;;;;7.61;34.59;99073.38;4457943;32;20232;-79
2023/03/02 03:48:16;;;;;;;13.15;4.95;;;;;;;7.48;35.11;99075.62;4472255;32;20336;-78
2023/03/02 03:50:43;;;;;;;15.95;5.37;;;;;;;7.62;34.91;99085.59;4472156;32;20141;-79
2023/03/02 03:53:08;;;;;;;15.73;5.30;;;;;;;7.62;34.88;99085.59;4472102;32;20131;-79
2023/03/02 03:55:34;;;;;;;13.32;4.93;;;;;;;7.60;35.28;99087.44;4472125;32;20437;-78
2023/03/02 03:57:59;;;;;;;14.43;5.03;;;;;;;7.72;35.12;99091.34;4472076;32;20133;-79
2023/03/02 04:00:25;;;;;;;13.68;5.03;;;;;;;7.70;34.51;99082.69;4457822;32;20124;-79
2023/03/02 04:02:50;;;;;;;13.57;4.70;;;;;;;7.57;34.66;99088.41;4457774;32;20093;-78
2023/03/02 04:05:16;;;;;;;13.70;4.87;;;;;;;7.74;34.57;99086.91;4472039;32;20107;-77
2023/03/02 04:07:42;;;;;;;15.50;5.53;;;;;;;7.71;33.92;99080.00;4472089;32;20131;-76
2023/03/02 04:10:08;;;;;;;16.67;6.18;;;;;;;7.75;34.01;99081.59;4471740;32;20411;-82
2023/03/02 04:12:36;;;;;;;12.07;5.25;;;;;;;7.78;34.29;99084.09;4466354;32;20798;-81
2023/03/02 04:15:02;;;;;;;14.48;5.05;;;;;;;7.79;33.87;99083.19;4469672;32;20123;-79
2023/03/02 04:17:28;;;;;;;13.32;4.62;;;;;;;7.76;33.93;99085.06;4456591;32;20085;-82
2023/03/02 04:19:54;;;;;;;12.55;4.80;;;;;;;7.66;32.79;99088.03;4470889;32;20130;-82
2023/03/02 04:22:19;;;;;;;13.13;5.03;;;;;;;7.23;33.81;99087.00;4470961;32;20157;-82
2023/03/02 04:24:46;;;;;;;12.73;4.35;;;;;;;7.48;33.39;99092.22;4471143;32;20415;-81
2023/03/02 04:27:12;;;;;;;14.82;5.32;;;;;;;7.61;33.07;99082.12;4470772;32;20115;-80
2023/03/02 04:29:37;;;;;;;13.38;4.57;;;;;;;7.71;32.97;99079.13;4456789;32;20112;-82
2023/03/02 04:32:03;;;;;;;14.45;4.95;;;;;;;7.60;33.25;99090.06;4470506;32;20142;-82
2023/03/02 04:34:28;;;;;;;12.93;4.62;;;;;;;7.65;33.02;99081.09;4470277;32;20081;-82
2023/03/02 04:36:54;;;;;;;13.55;4.93;;;;;;;7.57;32.65;99077.91;4470479;32;20137;-81
2023/03/02 04:39:20;;;;;;;12.75;4.47;;;;;;;7.59;32.65;99068.22;4456917;32;20085;-84
2023/03/02 04:41:45;;;;;;;12.57;4.40;;;;;;;7.66;32.68;99071.47;4470430;32;20144;-82
2023/03/02 04:44:11;;;;;;;13.07;4.57;;;;;;;7.63;32.50;99077.69;4470750;32;20080;-83
2023/03/02 04:46:37;;;;;;;13.55;5.07;;;;;;;7.38;32.86;99076.88;4456717;32;20091;-81
2023/03/02 04:49:03;;;;;;;14.25;5.05;;;;;;;7.49;32.61;99077.34;4471238;32;20138;-79
2023/03/02 04:51:35;;;;;;;13.82;4.95;;;;;;;7.01;32.57;99076.47;4470659;32;20093;-80
2023/03/02 04:54:06;;;;;;;12.93;5.10;;;;;;;7.37;32.26;99072.56;4456889;32;20126;-82
2023/03/02 04:56:33;;;;;;;13.70;5.18;;;;;;;7.53;32.39;99072.84;4469984;32;20805;-83
2023/03/02 04:58:59;;;;;;;13.57;4.82;;;;;;;7.53;32.31;99076.28;4470139;32;20171;-83
2023/03/02 05:01:25;;;;;;;12.10;4.60;;;;;;;7.12;32.21;99070.81;4456335;32;20188;-81
2023/03/02 05:03:51;;;;;;;13.23;4.45;;;;;;;7.39;32.26;99073.34;4456530;32;20130;-81
2023/03/02 05:06:16;;;;;;;12.88;4.97;;;;;;;7.46;31.82;99077.47;4456873;32;20466;-81
2023/03/02 05:08:42;;;;;;;14.73;4.57;;;;;;;7.52;31.74;99082.47;4470815;32;20125;-81
2023/03/02 05:11:10;;;;;;;12.43;4.57;;;;;;;6.85;32.49;99070.87;4456760;32;20107;-81
2023/03/02 05:13:35;;;;;;;13.75;4.85;;;;;;;6.93;32.19;99070.63;4456168;32;20166;-80
2023/03/02 05:16:01;;;;;;;12.90;4.95;;;;;;;7.23;32.02;99073.06;4464280;32;206363;-82
2023/03/02 05:18:26;;;;;;;12.60;4.40;;;;;;;7.33;32.49;99076.19;4470134;32;20352;-82
2023/03/02 05:20:53;;;;;;;13.00;4.35;;;;;;;7.35;31.86;99069.97;4456626;32;20120;-83
2023/03/02 05:23:22;;;;;;;11.00;4.03;;;;;;;7.45;32.35;99067.88;4440764;32;20165;-82
2023/03/02 05:25:50;;;;;;;14.13;4.50;;;;;;;7.42;31.63;99070.63;4460882;32;20084;-82
2023/03/02 05:28:16;;;;;;;11.07;4.35;;;;;;;6.95;31.41;99070.56;4470434;32;20115;-83
2023/03/02 05:30:41;;;;;;;13.55;4.40;;;;;;;7.26;30.60;99073.81;4470688;32;20111;-83
2023/03/02 05:33:07;;;;;;;12.25;4.30;;;;;;;7.32;31.08;99082.34;4470149;32;20164;-82
2023/03/02 05:35:33;;;;;;;13.48;4.78;;;;;;;7.36;31.37;99082.19;4456218;32;20105;-80
2023/03/02 05:37:58;;;;;;;11.07;4.15;;;;;;;7.28;30.58;99086.84;4470274;32;20073;-82
2023/03/02 05:40:24;;;;;;;12.23;4.15;;;;;;;7.42;30.42;99083.72;4470209;32;20084;-83
2023/03/02 05:42:49;;;;;;;12.73;3.95;;;;;;;7.50;30.74;99086.91;4455884;32;20101;-82
2023/03/02 05:45:22;;;;;;;14.32;4.87;;;;;;;7.64;30.83;99084.63;4467396;32;20542;-80
2023/03/02 05:47:47;;;;;;;12.43;4.03;;;;;;;7.63;30.65;99079.44;4460718;32;20089;-81
2023/03/02 05:50:13;;;;;;;12.55;4.72;;;;;;;7.68;30.29;99083.59;4469634;32;20088;-79
2023/03/02 05:52:39;;;;;;;13.90;4.60;;;;;;;7.85;30.27;99089.97;4470487;32;20333;-80
2023/03/02 05:55:04;;;;;;;12.60;3.83;;;;;;;7.94;30.56;99087.00;4469769;32;20077;-79
2023/03/02 05:57:30;;;;;;;12.05;4.43;;;;;;;8.02;30.64;99084.91;4470402;32;20114;-77
2023/03/02 05:59:55;;;;;;;14.07;4.37;;;;;;;8.16;29.49;99087.00;4469631;32;20092;-78
2023/03/02 06:02:21;;;;;;;13.68;5.10;;;;;;;8.22;29.56;99088.53;4470396;32;20096;-77
2023/03/02 06:04:46;;;;;;;12.02;4.50;;;;;;;8.30;29.91;99085.59;4469860;32;20101;-77
2023/03/02 06:07:12;;;;;;;11.50;3.85;;;;;;;8.06;29.49;99089.13;4470165;32;20152;-76
2023/03/02 06:09:38;;;;;;;13.40;4.28;;;;;;;8.21;29.66;99092.06;4470235;32;20104;-81
2023/03/02 06:12:05;;;;;;;12.90;4.50;;;;;;;8.18;28.70;99094.81;4456918;32;20101;-80
2023/03/02 06:14:30;;;;;;;10.75;4.25;;;;;;;8.28;28.65;99093.50;4470994;32;20418;-82
2023/03/02 06:16:56;;;;;;;11.75;4.45;;;;;;;8.50;29.07;99092.66;4470334;32;20091;-82
2023/03/02 06:19:21;;;;;;;11.50;4.12;;;;;;;8.60;29.09;99092.25;4469636;32;20122;-83
2023/03/02 06:21:46;;;;;;;13.45;4.65;;;;;;;8.50;29.63;99100.53;4468227;32;20115;-82
2023/03/02 06:24:12;;;;;;;11.45;4.10;;;;;;;8.73;28.27;99092.59;4470014;32;20077;-83
2023/03/02 06:26:37;;;;;;;12.60;4.60;;;;;;;8.85;28.42;99092.06;4470448;32;20138;-81
2023/03/02 06:29:04;;;;;;;13.62;4.12;;;;;;;8.15;29.05;99100.16;4470493;32;20352;-83
2023/03/02 06:31:29;;;;;;;11.80;4.15;;;;;;;8.65;28.22;99094.66;4456504;32;20113;-84
2023/03/02 06:33:55;;;;;;;11.32;4.18;;;;;;;8.81;27.92;99098.38;4456408;32;20520;-80
2023/03/02 06:36:20;;;;;;;11.55;4.22;;;;;;;8.86;27.50;99098.16;4470351;32;20412;-85
2023/03/02 06:38:46;;;;;;;12.90;4.50;;;;;;;8.96;27.56;99104.75;4470326;32;20333;-83
2023/03/02 06:41:11;;;;;;;11.40;4.00;;;;;;;9.00;28.19;99110.69;4470301;32;20145;-84
2023/03/02 06:43:37;;;;;;;11.23;3.62;;;;;;;8.99;29.06;99109.00;4469570;32;20089;-82
2023/03/02 06:46:02;;;;;;;11.25;3.87;;;;;;;8.71;28.56;99111.94;4465952;32;20484;-82
2023/03/02 06:48:28;;;;;;;12.73;4.10;;;;;;;8.65;28.47;99116.53;4451783;32;20182;-81
2023/03/02 06:50:53;;;;;;;12.20;4.45;;;;;;;8.72;28.46;99111.03;4448541;32;20380;-83
2023/03/02 06:53:21;;;;;;;12.13;4.30;;;;;;;9.06;28.50;99110.47;4462478;32;20494;-83
2023/03/02 06:55:47;;;;;;;11.77;3.85;;;;;;;9.16;27.56;99103.88;4464900;32;20089;-81
2023/03/02 06:58:12;;;;;;;11.68;4.03;;;;;;;9.29;27.63;99111.22;4471919;32;20138;-82
2023/03/02 07:00:38;;;;;;;12.18;3.92;;;;;;;8.55;27.74;99122.22;4471747;32;20148;-84
2023/03/02 07:03:04;;;;;;;12.68;3.87;;;;;;;9.25;27.48;99118.38;4467871;32;20101;-83
2023/03/02 07:05:31;;;;;;;11.20;3.60;;;;;;;9.36;27.60;99110.88;4465304;32;20076;-83
2023/03/02 07:07:57;;;;;;;11.48;4.05;;;;;;;9.01;27.20;99122.94;4452314;32;20408;-84
2023/03/02 07:10:23;;;;;;;11.88;4.05;;;;;;;9.36;27.16;99118.75;4455611;32;20130;-84
2023/03/02 07:12:52;;;;;;;11.95;3.97;;;;;;;8.96;27.18;99130.16;4471797;32;20089;-84
2023/03/02 07:15:18;;;;;;;10.80;3.78;;;;;;;9.13;27.36;99121.56;4466683;32;20168;-84
2023/03/02 07:17:44;;;;;;;11.50;3.83;;;;;;;9.54;27.68;99119.75;4463178;32;20503;-84
2023/03/02 07:20:15;;;;;;;11.80;3.65;;;;;;;9.73;27.39;99119.72;4460544;32;20163;-84
2023/03/02 07:22:41;;;;;;;11.70;4.20;;;;;;;9.46;27.19;99119.19;4442551;32;20107;-84
2023/03/02 07:25:07;;;;;;;12.75;4.15;;;;;;;9.67;27.30;99116.53;4456604;32;20076;-80
2023/03/02 07:27:33;;;;;;;14.18;4.53;;;;;;;9.92;26.71;99114.47;4456567;32;20108;-80
2023/03/02 07:29:58;;;;;;;11.23;4.50;;;;;;;9.87;27.55;99127.00;4456501;32;20128;-79
2023/03/02 07:32:24;;;;;;;13.00;3.92;;;;;;;9.78;27.50;99119.53;4456494;32;20062;-85
2023/03/02 07:34:49;;;;;;;12.73;4.37;;;;;;;9.74;27.37;99113.56;4456488;32;20416;-84
2023/03/02 07:37:15;;;;;;;13.05;4.72;;;;;;;10.01;27.59;99113.22;4442018;32;20172;-84
2023/03/02 07:39:40;;;;;;;12.55;4.43;;;;;;;9.96;27.46;99112.56;4456532;32;20081;-84
2023/03/02 07:42:07;;;;;;;12.23;4.47;;;;;;;10.15;27.51;99121.28;4456422;32;20124;-84
2023/03/02 07:44:33;;;;;;;13.00;4.70;;;;;;;10.19;27.92;99108.84;4456305;32;20098;-84
2023/03/02 07:46:59;;;;;;;15.00;4.32;;;;;;;10.16;28.30;99104.59;4442394;32;20493;-84
2023/03/02 07:49:24;;;;;;;12.50;4.40;;;;;;;10.37;27.60;99105.38;4456289;32;20440;-84
2023/03/02 07:51:49;;;;;;;10.82;4.35;;;;;;;9.70;27.51;99109.37;4456430;32;20089;-84
2023/03/02 07:54:15;;;;;;;14.05;4.80;;;;;;;9.92;27.40;99105.72;4456210;32;20142;-84
2023/03/02 07:56:40;;;;;;;13.20;4.37;;;;;;;10.13;28.21;99109.97;4456345;32;20107;-84
2023/03/02 07:59:06;;;;;;;13.57;4.43;;;;;;;9.79;28.35;99105.44;4455985;32;20100;-84
2023/03/02 08:01:31;;;;;;;12.65;4.25;;;;;;;9.96;27.27;99104.66;4456456;32;20077;-84
2023/03/02 08:03:56;;;;;;;13.05;4.37;;;;;;;10.19;27.32;99099.16;4456483;32;20313;-84
2023/03/02 08:06:22;;;;;;;12.52;4.12;;;;;;;9.70;27.87;99101.47;4456522;32;20086;-84
2023/03/02 08:08:47;;;;;;;12.95;4.70;;;;;;;10.16;27.74;99101.06;4455297;32;20115;-84
2023/03/02 08:11:15;;;;;;;12.93;3.90;;;;;;;9.99;27.63;99107.16;4456371;32;20119;-84
2023/03/02 08:13:41;;;;;;;12.55;4.15;;;;;;;10.15;27.34;99112.53;4456615;32;20077;-84
2023/03/02 08:16:08;;;;;;;13.50;4.57;;;;;;;10.27;27.40;99113.72;4456443;32;20433;-84
2023/03/02 08:18:34;;;;;;;13.82;4.60;;;;;;;10.26;27.40;99102.34;4456462;32;20089;-84
2023/03/02 08:21:00;;;;;;;11.40;3.92;;;;;;;9.99;27.91;99108.00;4456184;32;20081;-84
2023/03/02 08:23:26;;;;;;;12.90;4.80;;;;;;;10.24;27.63;99114.75;4456163;32;20111;-83
2023/03/02 08:25:53;;;;;;;12.10;4.25;;;;;;;10.11;27.67;99116.25;4456091;32;20407;-84
2023/03/02 08:28:19;;;;;;;11.07;4.25;;;;;;;10.36;27.69;99106.28;4456104;32;20136;-84
2023/03/02 08:30:54;;;;;;;13.52;4.43;;;;;;;10.42;27.78;99110.41;4456115;32;20749;-84
2023/03/02 08:33:19;;;;;;;12.48;4.80;;;;;;;10.48;27.83;99114.50;4442074;32;20069;-84
2023/03/02 08:35:56;;;;;;;14.52;4.65;;;;;;;10.51;27.47;99111.75;4456070;32;20147;-84
2023/03/02 08:38:22;;;;;;;13.60;4.37;;;;;;;10.50;27.39;99108.22;4442001;32;20718;-84
2023/03/02 08:40:50;;;;;;;12.45;4.70;;;;;;;10.51;27.64;99109.94;4442080;32;20165;-84
2023/03/02 08:43:15;;;;;;;13.82;4.85;;;;;;;10.47;27.75;99105.75;4456062;32;20668;-83
2023/03/02 08:45:41;;;;;;;13.80;4.97;;;;;;;9.92;28.04;99109.22;4455921;32;20127;-84
2023/03/02 08:48:06;;;;;;;12.85;4.85;;;;;;;9.71;29.19;99105.78;4456042;32;20085;-84
2023/03/02 08:50:31;;;;;;;12.70;5.35;;;;;;;10.07;29.71;99105.00;4441695;32;20143;-84
2023/03/02 08:52:57;;;;;;;16.20;5.03;;;;;;;10.35;29.25;99096.69;4455960;32;20121;-84
2023/03/02 08:55:22;;;;;;;15.80;6.05;;;;;;;10.31;29.33;99095.09;4441895;32;20369;-84
2023/03/02 08:57:48;;;;;;;14.50;5.50;;;;;;;10.23;29.70;99092.81;4455765;32;20089;-84
2023/03/02 09:00:15;;;;;;;14.32;6.32;;;;;;;10.38;29.44;99096.53;4441735;32;20424;-83
2023/03/02 09:02:40;;;;;;;15.47;6.00;;;;;;;10.05;29.42;99088.44;4455779;32;20524;-83
2023/03/02 09:05:06;;;;;;;16.12;7.00;;;;;;;10.36;29.15;99090.47;4455901;32;20204;-84
2023/03/02 09:07:32;;;;;;;16.95;6.37;;;;;;;10.30;29.65;99100.44;4455845;32;20362;-84
2023/03/02 09:09:57;;;;;;;16.80;6.43;;;;;;;9.49;31.05;99098.03;4455799;32;20131;-84
2023/03/02 09:12:23;;;;;;;14.95;6.18;;;;;;;10.23;29.59;99095.44;4455763;32;20072;-84
2023/03/02 09:14:48;;;;;;;17.02;6.65;;;;;;;10.29;29.91;99094.28;4455603;32;20089;-84
2023/03/02 09:17:14;;;;;;;15.88;6.53;;;;;;;9.53;31.17;99090.88;4441496;32;20125;-83
2023/03/02 09:19:40;;;;;;;16.35;7.40;;;;;;;10.17;30.37;99087.84;4455272;32;20448;-84
2023/03/02 09:22:07;;;;;;;18.62;6.80;;;;;;;10.11;30.48;99089.94;4455742;32;20088;-84
2023/03/02 09:24:33;;;;;;;15.18;6.43;;;;;;;10.28;30.12;99081.22;4455731;32;20155;-84
2023/03/02 09:26:59;;;;;;;14.95;6.15;;;;;;;10.41;30.33;99077.94;4455791;32;20165;-84
2023/03/02 09:29:24;;;;;;;18.37;6.47;;;;;;;10.04;30.48;99084.97;4455613;32;20085;-84
2023/03/02 09:31:50;;;;;;;15.55;5.75;;;;;;;10.42;30.15;99074.38;4455622;32;20077;-84
2023/03/02 09:34:15;;;;;;;14.90;6.93;;;;;;;10.42;30.11;99084.06;4455687;32;20136;-84
2023/03/02 09:36:41;;;;;;;18.92;6.65;;;;;;;10.21;30.56;99081.50;4455588;32;20085;-84
2023/03/02 09:39:11;;;;;;;13.70;5.55;;;;;;;10.29;30.28;99080.28;4455508;32;20085;-84
2023/03/02 09:41:51;;;;;;;17.15;6.93;;;;;;;10.08;30.48;99080.38;4455585;32;20093;-83
2023/03/02 09:44:51;;;;;;;14.98;6.50;;;;;;;10.09;30.77;99078.63;4455617;32;20119;-84
2023/03/02 09:47:22;;;;;;;;;;;;;;;9.69;31.50;99094.50;4455797;32;20089;-84
2023/03/02 09:50:00;;;;;;;15.90;6.62;;;;;;;9.92;31.14;99080.25;4441481;32;19984;-84
2023/03/02 09:52:39;;;;;;;16.90;6.30;;;;;;;10.25;31.10;99076.94;4441457;32;20243;-84
2023/03/02 09:55:34;;;;;;;15.30;6.40;;;;;;;10.60;30.62;99079.66;4441551;32;20124;-84
2023/03/02 09:58:01;;;;;;;16.58;6.45;;;;;;;10.13;31.33;99074.91;4444975;32;20097;-84
2023/03/02 10:00:39;;;;;;;15.15;6.93;;;;;;;10.62;31.04;99076.03;4441392;32;20089;-84
2023/03/02 10:03:26;;;;;;;16.15;6.72;;;;;;;10.88;30.64;99073.84;4455167;32;20077;-84
2023/03/02 10:05:53;;;;;;;16.62;6.35;;;;;;;10.85;30.85;99081.06;4455068;32;20093;-84
2023/03/02 10:08:22;;;;;;;16.52;5.95;;;;;;;11.04;30.73;99076.53;4455521;32;20499;-84
2023/03/02 10:10:51;;;;;;;15.40;6.35;;;;;;;10.78;30.59;99076.09;4455345;32;20088;-84
2023/03/02 10:13:28;;;;;;;17.20;6.62;;;;;;;10.82;30.57;99076.81;4455163;32;20160;-84
2023/03/02 10:15:56;;;;;;;14.85;5.80;;;;;;;10.60;30.80;99064.72;4441144;32;20461;-84
2023/03/02 10:18:34;;;;;;;15.05;6.12;;;;;;;10.47;31.59;99066.25;4455070;32;20093;-84
2023/03/02 10:21:04;;;;;;;17.80;6.30;;;;;;;10.59;31.20;99070.91;4455099;32;20144;-84
2023/03/02 10:23:38;;;;;;;15.23;6.57;;;;;;;10.27;32.00;99066.34;4454982;32;20206;-84
2023/03/02 10:26:04;;;;;;;15.80;6.30;;;;;;;10.67;31.32;99070.50;4440915;32;20454;-84
2023/03/02 10:28:37;;;;;;;14.98;6.32;;;;;;;11.13;30.79;99064.69;4454907;32;20088;-84
2023/03/02 10:31:09;;;;;;;14.93;6.20;;;;;;;11.31;30.46;99058.41;4455208;32;20089;-84
2023/03/02 10:33:36;;;;;;;15.57;6.47;;;;;;;11.43;30.50;99056.91;4456952;32;20444;-84
2023/03/02 10:36:04;;;;;;;15.68;6.62;;;;;;;11.27;30.30;99048.97;4457270;32;20597;-84
2023/03/02 10:38:31;;;;;;;;;;;;;;;10.74;31.51;99065.78;4443045;32;20139;-84
2023/03/02 10:40:59;;;;;;;19.90;7.45;;;;;;;10.98;31.10;99053.97;4457012;32;20302;-84
2023/03/02 10:43:39;;;;;;;16.00;6.78;;;;;;;11.24;31.11;99050.91;4442923;32;20077;-84
2023/03/02 10:46:08;;;;;;;15.00;5.85;;;;;;;11.37;31.07;99044.03;4442823;32;20161;-84
2023/03/02 10:48:52;;;;;;;16.67;6.10;;;;;;;11.39;30.74;99044.81;4442849;32;20120;-84
2023/03/02 10:51:53;;;;;;;15.00;5.72;;;;;;;11.63;30.43;99041.78;4442999;32;20148;-84
2023/03/02 10:54:19;;;;;;;14.60;5.65;;;;;;;11.51;30.86;99038.91;4448454;32;20081;-84
2023/03/02 10:56:49;;;;;;;14.73;6.03;;;;;;;11.72;30.76;99026.28;4456778;32;20375;-84
2023/03/02 10:59:24;;;;;;;14.90;5.93;;;;;;;11.75;30.49;99022.62;4442790;32;20089;-84
2023/03/02 11:02:21;;;;;;;16.60;5.97;;;;;;;11.46;30.78;99025.09;4456534;32;20088;-84
2023/03/02 11:04:48;;;;;;;13.82;6.10;;;;;;;11.39;31.21;99021.06;4456757;32;20103;-84
2023/03/02 11:07:19;;;;;;;15.85;6.05;;;;;;;11.30;31.36;99021.56;4442560;32;20109;-84
2023/03/02 11:10:15;;;;;;;14.07;5.75;;;;;;;11.48;31.06;99012.66;4442784;32;20101;-84
2023/03/02 11:12:45;;;;;;;14.27;5.57;;;;;;;11.56;31.56;99009.59;4442730;32;20111;-84
2023/03/02 11:15:17;;;;;;;14.95;5.72;;;;;;;11.55;31.85;99010.53;4456613;32;20111;-85
2023/03/02 11:17:44;;;;;;;15.63;5.78;;;;;;;11.96;31.57;99002.97;4456542;32;20085;-84
2023/03/02 11:20:15;;;;;;;15.00;6.15;;;;;;;12.11;32.21;99003.03;4456666;32;20100;-84
2023/03/02 11:23:27;;;;;;;15.18;5.68;;;;;;;11.97;32.38;98994.09;4456711;32;20729;-84
2023/03/02 11:26:30;;;;;;;15.57;5.28;;;;;;;11.62;32.93;99001.34;4392949;32;20186;-84
2023/03/02 11:29:02;;;;;;;12.30;4.90;;;;;;;12.09;33.03;99004.91;4391040;32;20148;-84
2023/03/02 11:31:40;;;;;;;14.65;5.37;;;;;;;11.90;32.77;99000.69;4392976;32;20682;-82
2023/03/02 11:34:17;;;;;;;15.85;5.53;;;;;;;11.57;33.71;98998.09;4393264;32;20094;-82
2023/03/02 11:37:22;;;;;;;16.23;5.25;;;;;;;12.02;33.29;99001.78;4380291;32;20083;-84